Chemstar Masa — 3FGM7 — position and weather

sailwx.info

Track history (hours):
 
Tides and Currents Weather Stations Pressure Air Temp Water Temp Dewpoint Dewpoint Depression Visibility Wind Speed Wind Dir Waves Ship Positions

Chemstar Masa

Last reported at 2016-Jun-28 15:14 UTC. Time now 2016-Jun-30 05:07 UTC.
Position N 39°14' W 009°57'.

Length 141 m; draft 9.9 m.

Type: Ship (hazmat cat B). MMSI: 353456000.

Date/timePositionNaut miles runAvg speedWind from/ knotsBaromVisibWave heightAir tempDewpointWater temp
2016-Jun-28 15:14N 39°14' W 009°57'1010.9
2016-Jun-28 14:21N 39°04' W 009°57'1011.0
2016-Jun-28 13:29N 38°55' W 009°57'1211.3
2016-Jun-28 12:25N 38°43' W 009°57'1011.2
2016-Jun-28 11:33N 38°33' W 009°54'1111.4
2016-Jun-28 10:33N 38°22' W 009°51'1111.4
2016-Jun-28 09:33N 38°11' W 009°47'1211.9
2016-Jun-28 08:33N 37°59' W 009°44'1312.6
2016-Jun-28 07:33N 37°47' W 009°40'1313.0
2016-Jun-28 06:33N 37°34' W 009°37'2612.7
2016-Jun-28 04:32N 37°09' W 009°29'1212.9
2016-Jun-28 03:33N 36°57' W 009°26'5012.5
2016-Jun-27 23:33N 36°31' W 008°33'15313.9
2016-Jun-27 12:33N 36°00' W 005°27'22013.7
2016-Jun-26 20:27N 36°37' W 000°57'1112.8
2016-Jun-26 19:33N 36°39' W 000°43'15313.9
2016-Jun-26 08:34N 37°08' E 002°25'2814.1
2016-Jun-26 06:33N 37°12' E 003°00'1413.9
2016-Jun-26 05:32N 37°14' E 003°18'1313.7
2016-Jun-26 04:33N 37°16' E 003°35'1313.4
2016-Jun-26 03:33N 37°18' E 003°52'1613.2
2016-Jun-26 02:18N 37°20' E 004°12'1013.7
2016-Jun-26 01:33N 37°21' E 004°25'2914.0
2016-Jun-25 23:31N 37°26' E 005°00'2914.8
2016-Jun-25 21:33N 37°29' E 005°37'29613.3
2016-Jun-24 23:12N 37°12' E 011°49'2213.5
2016-Jun-24 21:33N 37°01' E 012°13'4413.5
2016-Jun-24 18:15N 36°41' E 013°02'1013.7
2016-Jun-24 17:33N 36°36' E 013°13'1413.9
2016-Jun-24 16:33N 36°30' E 013°29'1413.8
2016-Jun-24 15:33N 36°24' E 013°44'1413.9
2016-Jun-24 14:33N 36°20' E 014°00'1413.7
2016-Jun-24 13:33N 36°16' E 014°17'1413.6
2016-Jun-24 12:33N 36°12' E 014°33'  
2016-Jun-22 04:18N 32°33' E 029°37'8614.3
2016-Jun-21 22:16N 32°09' E 031°14'1114.1
2016-Jun-21 21:30N 32°05' E 031°26'1313.5
2016-Jun-21 20:33N 31°57' E 031°38'1413.6
2016-Jun-21 19:34N 31°50' E 031°52'1413.4
2016-Jun-21 18:31N 31°40' E 032°04'1313.3
2016-Jun-21 17:33N 31°32' E 032°15'1210.7
2016-Jun-21 16:29N 31°23' E 032°23'1111.5
2016-Jun-21 15:34N 31°13' E 032°20'8 7.7
2016-Jun-21 14:34N 31°05' E 032°19'10 9.2
2016-Jun-21 13:30N 30°55' E 032°19'  
Track history (hours):
 
Tides and Currents Weather Stations Pressure Air Temp Water Temp Dewpoint Dewpoint Depression Visibility Wind Speed Wind Dir Waves Ship Positions

Chemstar Masa

Last reported at 2016-Jun-28 15:14 UTC. Time now 2016-Jun-30 05:07 UTC.
Position N 39°14' W 009°57'.

Length 141 m; draft 9.9 m.

Type: Ship (hazmat cat B). MMSI: 353456000.

Date/timePositionNaut miles runAvg speedWind from/ knotsBaromVisibWave heightAir tempDewpointWater temp
2016-Jun-28 15:14N 39°14' W 009°57'1010.9
2016-Jun-28 14:21N 39°04' W 009°57'1011.0
2016-Jun-28 13:29N 38°55' W 009°57'1211.3
2016-Jun-28 12:25N 38°43' W 009°57'1011.2
2016-Jun-28 11:33N 38°33' W 009°54'1111.4
2016-Jun-28 10:33N 38°22' W 009°51'1111.4
2016-Jun-28 09:33N 38°11' W 009°47'1211.9
2016-Jun-28 08:33N 37°59' W 009°44'1312.6
2016-Jun-28 07:33N 37°47' W 009°40'1313.0
2016-Jun-28 06:33N 37°34' W 009°37'2612.7
2016-Jun-28 04:32N 37°09' W 009°29'1212.9
2016-Jun-28 03:33N 36°57' W 009°26'5012.5
2016-Jun-27 23:33N 36°31' W 008°33'15313.9
2016-Jun-27 12:33N 36°00' W 005°27'22013.7
2016-Jun-26 20:27N 36°37' W 000°57'1112.8
2016-Jun-26 19:33N 36°39' W 000°43'15313.9
2016-Jun-26 08:34N 37°08' E 002°25'2814.1
2016-Jun-26 06:33N 37°12' E 003°00'1413.9
2016-Jun-26 05:32N 37°14' E 003°18'1313.7
2016-Jun-26 04:33N 37°16' E 003°35'1313.4
2016-Jun-26 03:33N 37°18' E 003°52'1613.2
2016-Jun-26 02:18N 37°20' E 004°12'1013.7
2016-Jun-26 01:33N 37°21' E 004°25'2914.0
2016-Jun-25 23:31N 37°26' E 005°00'2914.8
2016-Jun-25 21:33N 37°29' E 005°37'29613.3
2016-Jun-24 23:12N 37°12' E 011°49'2213.5
2016-Jun-24 21:33N 37°01' E 012°13'4413.5
2016-Jun-24 18:15N 36°41' E 013°02'1013.7
2016-Jun-24 17:33N 36°36' E 013°13'1413.9
2016-Jun-24 16:33N 36°30' E 013°29'1413.8
2016-Jun-24 15:33N 36°24' E 013°44'1413.9
2016-Jun-24 14:33N 36°20' E 014°00'1413.7
2016-Jun-24 13:33N 36°16' E 014°17'1413.6
2016-Jun-24 12:33N 36°12' E 014°33'  
2016-Jun-22 04:18N 32°33' E 029°37'8614.3
2016-Jun-21 22:16N 32°09' E 031°14'1114.1
2016-Jun-21 21:30N 32°05' E 031°26'1313.5
2016-Jun-21 20:33N 31°57' E 031°38'1413.6
2016-Jun-21 19:34N 31°50' E 031°52'1413.4
2016-Jun-21 18:31N 31°40' E 032°04'1313.3
2016-Jun-21 17:33N 31°32' E 032°15'1210.7
2016-Jun-21 16:29N 31°23' E 032°23'1111.5
2016-Jun-21 15:34N 31°13' E 032°20'8 7.7
2016-Jun-21 14:34N 31°05' E 032°19'10 9.2
2016-Jun-21 13:30N 30°55' E 032°19'  

Dump ship's entire track history